createdAt,value
2023-04-01T00:01:17.937Z,0.88
2023-04-01T00:03:47.087Z,0.80
2023-04-01T00:06:17.647Z,0.80
2023-04-01T00:08:47.026Z,1.02
2023-04-01T00:11:16.173Z,0.77
2023-04-01T00:13:44.999Z,0.88
2023-04-01T00:16:21.783Z,0.85
2023-04-01T00:18:51.909Z,0.90
2023-04-01T00:21:20.521Z,0.80
2023-04-01T00:23:48.908Z,0.70
2023-04-01T00:26:20.323Z,0.70
2023-04-01T00:28:49.786Z,0.70
2023-04-01T00:31:18.190Z,0.90
2023-04-01T00:33:47.087Z,0.80
2023-04-01T00:36:18.274Z,0.80
2023-04-01T00:38:47.236Z,0.90
2023-04-01T00:41:17.002Z,0.88
2023-04-01T00:43:49.148Z,0.70
2023-04-01T00:46:17.359Z,0.90
2023-04-01T00:48:57.085Z,0.70
2023-04-01T00:51:31.914Z,0.70
2023-04-01T00:54:04.900Z,0.90
2023-04-01T00:56:38.148Z,0.80
2023-04-01T00:59:12.381Z,0.70
2023-04-01T01:01:40.324Z,0.90
2023-04-01T01:04:20.355Z,0.70
2023-04-01T01:07:10.253Z,0.80
2023-04-01T01:10:09.362Z,0.88
2023-04-01T01:13:06.680Z,0.70
2023-04-01T01:15:48.619Z,0.80
2023-04-01T01:18:38.343Z,0.80
2023-04-01T01:21:25.184Z,0.90
2023-04-01T01:24:26.435Z,0.68
2023-04-01T01:27:07.486Z,0.70
2023-04-01T01:30:11.458Z,0.70
2023-04-01T01:32:54.903Z,0.90
2023-04-01T01:35:29.570Z,0.80
2023-04-01T01:38:05.298Z,0.73
2023-04-01T01:40:35.777Z,0.77
2023-04-01T01:43:12.427Z,0.70
2023-04-01T01:45:48.815Z,0.80
2023-04-01T01:48:18.764Z,0.70
2023-04-01T01:50:48.953Z,0.63
2023-04-01T01:53:17.679Z,0.70
2023-04-01T01:55:47.934Z,0.63
2023-04-01T01:58:22.444Z,0.85
2023-04-01T02:00:56.036Z,0.57
2023-04-01T02:03:27.374Z,0.98
2023-04-01T02:05:59.070Z,0.77
2023-04-01T02:09:04.887Z,0.70
2023-04-01T02:11:45.321Z,0.55
2023-04-01T02:14:21.347Z,0.80
2023-04-01T02:17:03.546Z,0.60
2023-04-01T02:19:39.488Z,0.70
2023-04-01T02:22:14.761Z,0.70
2023-04-01T02:24:44.972Z,0.80
2023-04-01T02:27:13.247Z,0.57
2023-04-01T02:29:41.687Z,0.50
2023-04-01T02:32:11.336Z,0.60
2023-04-01T02:34:40.650Z,0.60
2023-04-01T02:37:08.776Z,0.57
2023-04-01T02:39:36.970Z,0.70
2023-04-01T02:42:04.928Z,0.70
2023-04-01T02:44:33.736Z,0.60
2023-04-01T02:47:02.268Z,0.70
2023-04-01T02:49:30.639Z,0.60
2023-04-01T02:51:58.511Z,0.60
2023-04-01T02:54:26.830Z,0.60
2023-04-01T02:56:54.882Z,0.60
2023-04-01T02:59:23.229Z,0.70
2023-04-01T03:01:51.302Z,0.68
2023-04-01T03:04:19.585Z,0.60
2023-04-01T03:06:47.620Z,0.55
2023-04-01T03:09:16.514Z,0.60
2023-04-01T03:11:44.938Z,0.60
2023-04-01T03:14:13.288Z,0.47
2023-04-01T03:16:41.214Z,0.60
2023-04-01T03:19:09.506Z,0.60
2023-04-01T03:21:37.624Z,0.60
2023-04-01T03:24:07.623Z,0.60
2023-04-01T03:26:35.488Z,0.55
2023-04-01T03:29:04.046Z,0.50
2023-04-01T03:31:32.375Z,0.70
2023-04-01T03:34:00.796Z,0.50
2023-04-01T03:36:29.260Z,0.73
2023-04-01T03:38:57.558Z,0.60
2023-04-01T03:41:38.416Z,0.70
2023-04-01T03:44:07.637Z,0.70
2023-04-01T03:46:35.954Z,0.50
2023-04-01T03:49:04.417Z,0.50
2023-04-01T03:51:32.289Z,0.75
2023-04-01T03:54:00.641Z,0.50
2023-04-01T03:56:28.797Z,0.57
2023-04-01T03:58:57.412Z,0.60
2023-04-01T04:01:26.043Z,0.50
2023-04-01T04:03:57.605Z,0.50
2023-04-01T04:06:26.209Z,0.50
2023-04-01T04:08:57.697Z,0.57
2023-04-01T04:11:27.479Z,0.63
2023-04-01T04:13:57.154Z,0.60
2023-04-01T04:16:26.091Z,0.60
2023-04-01T04:19:01.145Z,0.50
2023-04-01T04:21:29.063Z,0.50
2023-04-01T04:23:57.508Z,0.50
2023-04-01T04:26:28.081Z,0.60
2023-04-01T04:29:01.559Z,0.52
2023-04-01T04:31:29.927Z,0.63
2023-04-01T04:34:02.534Z,0.60
2023-04-01T04:36:33.990Z,0.77
2023-04-01T04:39:05.209Z,0.70
2023-04-01T04:41:37.530Z,0.60
2023-04-01T04:44:06.818Z,0.60
2023-04-01T04:46:34.882Z,0.88
2023-04-01T04:49:16.712Z,0.60
2023-04-01T04:51:45.245Z,0.50
2023-04-01T04:54:16.211Z,0.60
2023-04-01T04:57:04.609Z,0.50
2023-04-01T04:59:38.662Z,0.50
2023-04-01T05:02:22.875Z,0.60
2023-04-01T05:04:51.148Z,0.80
2023-04-01T05:07:19.135Z,0.70
2023-04-01T05:09:48.272Z,0.85
2023-04-01T05:12:16.264Z,0.60
2023-04-01T05:14:58.835Z,0.75
2023-04-01T05:17:27.222Z,0.90
2023-04-01T05:19:55.964Z,0.90
2023-04-01T05:22:24.796Z,0.70
2023-04-01T05:24:53.200Z,0.90
2023-04-01T05:27:21.919Z,0.63
2023-04-01T05:29:50.213Z,0.80
2023-04-01T05:32:36.659Z,0.80
2023-04-01T05:35:06.002Z,0.70
2023-04-01T05:37:36.442Z,0.90
2023-04-01T05:40:10.138Z,0.88
2023-04-01T05:43:00.667Z,0.88
2023-04-01T05:45:56.408Z,0.70
2023-04-01T05:48:40.878Z,0.60
2023-04-01T05:51:18.625Z,0.90
2023-04-01T06:12:02.728Z,1.00
2023-04-01T06:14:42.947Z,0.90
2023-04-01T06:17:20.267Z,1.10
2023-04-01T06:20:22.923Z,1.10
2023-04-01T06:22:59.791Z,1.13
2023-04-01T06:25:30.513Z,1.13
2023-04-01T06:28:39.100Z,1.10
2023-04-01T06:31:43.379Z,1.00
2023-04-01T06:34:43.125Z,1.10
2023-04-01T06:37:37.500Z,1.10
2023-04-01T06:40:24.538Z,1.20
2023-04-01T06:43:25.321Z,1.42
2023-04-01T06:51:53.063Z,1.42
2023-04-01T06:54:43.850Z,1.10
2023-04-01T06:57:38.594Z,1.23
2023-04-01T07:00:18.759Z,1.85
2023-04-01T07:02:56.940Z,1.90
2023-04-01T07:05:27.073Z,1.27
2023-04-01T07:08:02.455Z,1.90
2023-04-01T07:10:46.365Z,1.50
2023-04-01T07:14:04.701Z,1.70
2023-04-01T07:16:45.649Z,1.45
2023-04-01T07:19:22.343Z,1.23
2023-04-01T07:22:40.291Z,1.45
2023-04-01T07:25:27.481Z,1.27
2023-04-01T07:30:52.148Z,1.30
2023-04-01T07:33:45.806Z,1.50
2023-04-01T07:36:17.726Z,2.00
2023-04-01T07:38:46.202Z,1.30
2023-04-01T07:41:45.636Z,1.95
2023-04-01T07:44:29.441Z,2.03
2023-04-01T07:47:17.499Z,1.40
2023-04-01T07:50:01.045Z,1.20
2023-04-01T07:52:51.662Z,1.50
2023-04-01T07:55:45.941Z,1.45
2023-04-01T07:58:35.018Z,1.35
2023-04-01T08:01:47.441Z,1.58
2023-04-01T08:04:26.966Z,1.20
2023-04-01T08:07:12.309Z,1.30
2023-04-01T08:10:09.868Z,1.27
2023-04-01T08:13:26.433Z,1.67
2023-04-01T08:16:19.096Z,1.42
2023-04-01T08:19:06.978Z,1.42
2023-04-01T08:21:45.376Z,1.50
2023-04-01T08:24:44.280Z,1.58
2023-04-01T08:27:29.730Z,1.20
2023-04-01T08:30:03.411Z,1.70
2023-04-01T08:32:42.648Z,1.45
2023-04-01T08:35:19.834Z,1.45
2023-04-01T08:37:51.700Z,1.40
2023-04-01T08:40:35.996Z,1.20
2023-04-01T08:43:25.628Z,1.52
2023-04-01T08:46:11.848Z,1.70
2023-04-01T08:49:00.805Z,1.23
2023-04-01T08:51:33.848Z,1.55
2023-04-01T08:54:30.842Z,1.70
2023-04-01T08:57:29.709Z,1.80
2023-04-01T09:00:22.351Z,1.30
2023-04-01T09:03:43.951Z,1.30
2023-04-01T09:06:33.321Z,1.33
2023-04-01T09:09:28.821Z,1.48
2023-04-01T09:12:23.614Z,1.63
2023-04-01T09:15:29.756Z,2.17
2023-04-01T09:18:14.255Z,2.90
2023-04-01T09:20:52.082Z,1.95
2023-04-01T09:23:54.535Z,1.83
2023-04-01T09:26:49.817Z,2.10
2023-04-01T09:29:43.343Z,1.52
2023-04-01T09:32:25.110Z,1.70
2023-04-01T09:35:42.305Z,1.90
2023-04-01T09:38:10.183Z,1.20
2023-04-01T09:40:59.860Z,1.63
2023-04-01T09:44:00.178Z,1.50
2023-04-01T09:46:47.104Z,1.50
2023-04-01T09:49:27.088Z,1.75
2023-04-01T09:51:56.626Z,1.65
2023-04-01T09:54:47.145Z,2.00
2023-04-01T09:57:48.477Z,3.30
2023-04-01T10:01:16.494Z,1.80
2023-04-01T10:04:12.259Z,1.23
2023-04-01T10:07:10.109Z,4.93
2023-04-01T10:12:53.358Z,1.50
2023-04-01T10:15:43.648Z,1.60
2023-04-01T10:18:36.522Z,1.48
2023-04-01T10:21:31.730Z,1.40
2023-04-01T10:24:27.077Z,1.33
2023-04-01T10:27:33.426Z,1.30
2023-04-01T10:30:31.968Z,1.30
2023-04-01T10:33:16.753Z,3.22
2023-04-01T10:36:10.084Z,2.00
2023-04-01T10:38:54.520Z,2.20
2023-04-01T10:41:47.816Z,1.45
2023-04-01T10:45:12.016Z,1.20
2023-04-01T10:48:25.105Z,1.27
2023-04-01T10:51:07.153Z,1.30
2023-04-01T10:53:59.829Z,1.60
2023-04-01T10:57:31.773Z,1.23
2023-04-01T11:00:39.726Z,1.95
2023-04-01T11:03:35.556Z,2.25
2023-04-01T11:06:37.226Z,2.03
2023-04-01T11:09:42.770Z,1.80
2023-04-01T11:12:38.548Z,1.92
2023-04-01T11:15:12.834Z,1.52
2023-04-01T11:17:59.751Z,5.40
2023-04-01T11:21:07.186Z,2.72
2023-04-01T11:24:06.142Z,1.75
2023-04-01T11:27:12.812Z,2.88
2023-04-01T11:30:24.283Z,1.73
2023-04-01T11:33:29.695Z,1.85
2023-04-01T11:36:28.635Z,2.10
2023-04-01T11:39:31.550Z,3.10
2023-04-01T11:42:38.743Z,2.90
2023-04-01T11:45:53.826Z,2.20
2023-04-01T11:48:37.731Z,2.22
2023-04-01T11:51:20.632Z,2.15
2023-04-01T11:53:54.672Z,1.88
2023-04-01T11:56:40.379Z,2.28
2023-04-01T11:59:41.797Z,2.60
2023-04-01T12:02:27.169Z,2.75
2023-04-01T12:05:19.830Z,2.08
2023-04-01T12:08:35.229Z,1.88
2023-04-01T12:11:27.181Z,2.80
2023-04-01T12:14:25.019Z,1.85
2023-04-01T12:17:19.627Z,2.42
2023-04-01T12:19:50.814Z,1.70
2023-04-01T12:22:42.859Z,1.98
2023-04-01T12:25:44.628Z,2.10
2023-04-01T12:28:38.806Z,1.90
2023-04-01T12:31:30.120Z,1.58
2023-04-01T12:34:13.031Z,2.50
2023-04-01T12:36:49.883Z,4.10
2023-04-01T12:39:40.968Z,2.40
2023-04-01T12:42:29.676Z,2.10
2023-04-01T12:45:14.059Z,2.30
2023-04-01T12:48:00.786Z,2.63
2023-04-01T12:50:54.510Z,2.00
2023-04-01T12:53:44.373Z,2.58
2023-04-01T12:56:55.537Z,1.80
2023-04-01T12:59:55.909Z,1.75
2023-04-01T13:02:29.522Z,1.88
2023-04-01T13:05:16.973Z,1.95
2023-04-01T13:08:10.778Z,1.60
2023-04-01T13:11:15.308Z,2.78
2023-04-01T13:17:38.690Z,1.95
2023-04-01T13:20:44.071Z,2.60
2023-04-01T13:23:21.242Z,1.80
2023-04-01T13:26:26.370Z,2.30
2023-04-01T13:29:03.298Z,1.60
2023-04-01T13:31:49.434Z,2.20
2023-04-01T13:34:41.466Z,2.00
2023-04-01T13:37:18.708Z,3.50
2023-04-01T13:40:04.314Z,3.00
2023-04-01T13:43:03.734Z,2.47
2023-04-01T13:46:21.294Z,2.38
2023-04-01T13:49:33.409Z,1.73
2023-04-01T13:52:21.331Z,2.30
2023-04-01T13:55:18.248Z,1.98
2023-04-01T13:57:59.038Z,2.10
2023-04-01T14:00:57.808Z,2.38
2023-04-01T14:03:57.132Z,2.50
2023-04-01T14:06:39.108Z,2.00
2023-04-01T14:09:44.945Z,2.20
2023-04-01T14:12:51.740Z,2.38
2023-04-01T14:15:23.556Z,5.30
2023-04-01T14:18:03.632Z,3.17
2023-04-01T14:21:02.497Z,1.83
2023-04-01T14:24:00.559Z,1.85
2023-04-01T14:27:04.545Z,2.13
2023-04-01T14:29:51.111Z,2.60
2023-04-01T14:32:59.745Z,1.95
2023-04-01T14:35:53.797Z,2.80
2023-04-01T14:38:50.604Z,2.25
2023-04-01T14:41:50.870Z,2.67
2023-04-01T14:44:52.707Z,2.78
2023-04-01T14:47:51.990Z,2.90
2023-04-01T14:50:24.514Z,2.10
2023-04-01T14:53:11.077Z,2.25
2023-04-01T14:55:43.379Z,2.00
2023-04-01T14:58:14.753Z,2.38
2023-04-01T15:00:58.525Z,2.47
2023-04-01T15:03:35.584Z,1.83
2023-04-01T15:06:39.667Z,2.60
2023-04-01T15:09:26.253Z,2.47
2023-04-01T15:12:47.850Z,3.08
2023-04-01T15:15:28.034Z,2.65
2023-04-01T15:18:14.259Z,3.00
2023-04-01T15:20:57.640Z,2.17
2023-04-01T15:23:47.257Z,3.25
2023-04-01T15:26:23.538Z,2.95
2023-04-01T15:29:03.898Z,2.00
2023-04-01T15:31:47.183Z,2.10
2023-04-01T15:34:45.553Z,1.77
2023-04-01T15:37:37.604Z,1.98
2023-04-01T15:40:32.257Z,1.90
2023-04-01T15:43:23.366Z,2.38
2023-04-01T15:46:16.584Z,2.22
2023-04-01T15:49:00.866Z,1.98
2023-04-01T15:51:48.006Z,1.50
2023-04-01T15:54:59.725Z,1.50
2023-04-01T15:57:43.246Z,2.08
2023-04-01T16:00:25.042Z,2.20
2023-04-01T16:03:19.638Z,1.50
2023-04-01T16:06:09.320Z,1.63
2023-04-01T16:08:48.322Z,1.42
2023-04-01T16:11:32.741Z,1.67
2023-04-01T16:14:39.785Z,1.60
2023-04-01T16:17:30.860Z,1.70
2023-04-01T16:20:11.659Z,1.70
2023-04-01T16:22:46.284Z,1.55
2023-04-01T16:25:39.292Z,1.27
2023-04-01T16:28:51.569Z,1.35
2023-04-01T16:31:44.091Z,1.55
2023-04-01T16:34:32.638Z,1.50
2023-04-01T16:37:16.862Z,1.23
2023-04-01T16:40:10.816Z,1.45
2023-04-01T16:42:45.016Z,1.50
2023-04-01T16:45:49.330Z,1.20
2023-04-01T16:48:24.217Z,1.40
2023-04-01T16:51:11.210Z,1.40
2023-04-01T16:53:47.151Z,1.20
2023-04-01T16:56:31.439Z,1.50
2023-04-01T16:59:08.857Z,1.33
2023-04-01T17:01:53.825Z,1.10
2023-04-01T17:04:42.563Z,1.35
2023-04-01T17:07:20.374Z,1.20
2023-04-01T17:10:07.156Z,1.75
2023-04-01T17:13:16.150Z,1.58
2023-04-01T17:16:16.684Z,1.40
2023-04-01T17:19:12.521Z,1.40
2023-04-01T17:22:03.050Z,1.38
2023-04-01T17:24:56.108Z,1.45
2023-04-01T17:27:55.326Z,1.33
2023-04-01T17:30:38.944Z,1.55
2023-04-01T17:33:11.559Z,1.55
2023-04-01T17:35:53.315Z,1.50
2023-04-01T17:38:36.939Z,1.63
2023-04-01T17:41:07.610Z,1.40
2023-04-01T17:43:42.618Z,1.15
2023-04-01T17:46:35.381Z,1.35
2023-04-01T17:49:20.662Z,1.20
2023-04-01T17:52:29.354Z,1.67
2023-04-01T17:55:04.826Z,1.67
2023-04-01T17:57:58.938Z,1.65
2023-04-01T18:00:50.449Z,1.80
2023-04-01T18:03:45.091Z,1.55
2023-04-01T18:06:44.877Z,1.58
2023-04-01T18:09:26.925Z,2.97
2023-04-01T18:12:28.060Z,2.20
2023-04-01T18:15:32.503Z,2.17
2023-04-01T18:18:27.292Z,2.22
2023-04-01T18:21:15.040Z,2.00
2023-04-01T18:24:32.974Z,1.50
2023-04-01T18:27:26.731Z,1.38
2023-04-01T18:30:30.762Z,2.00
2023-04-01T18:33:06.041Z,1.45
2023-04-01T18:36:16.004Z,1.40
2023-04-01T18:39:03.308Z,2.40
2023-04-01T18:41:49.235Z,1.52
2023-04-01T18:44:42.754Z,1.10
2023-04-01T18:47:48.943Z,1.08
2023-04-01T18:50:39.658Z,1.30
2023-04-01T18:53:31.871Z,1.70
2023-04-01T18:56:19.076Z,1.00
2023-04-01T18:59:08.385Z,4.25
2023-04-01T19:02:29.157Z,6.13
2023-04-01T19:05:12.436Z,2.97
2023-04-01T19:07:58.157Z,14.07
2023-04-01T19:10:59.236Z,8.60
2023-04-01T19:14:02.245Z,7.82
2023-04-01T19:16:47.525Z,6.05
2023-04-01T19:19:52.764Z,8.90
2023-04-01T19:23:12.807Z,4.70
2023-04-01T19:25:57.209Z,6.35
2023-04-01T19:28:54.592Z,6.78
2023-04-01T19:31:47.843Z,9.18
2023-04-01T19:34:47.614Z,8.65
2023-04-01T19:37:47.626Z,7.60
2023-04-01T19:40:19.222Z,7.60
2023-04-01T19:43:15.656Z,7.20
2023-04-01T19:46:02.841Z,7.45
2023-04-01T19:49:53.397Z,6.97
2023-04-01T19:56:17.123Z,7.53
2023-04-01T20:00:18.408Z,6.47
2023-04-01T20:15:45.968Z,7.65
2023-04-01T20:19:10.375Z,6.75
2023-04-01T20:26:06.052Z,6.95
2023-04-01T20:42:30.039Z,5.20
2023-04-01T20:46:24.440Z,5.10
2023-04-01T20:53:15.357Z,5.72
2023-04-01T20:56:42.754Z,5.15
2023-04-01T21:00:28.104Z,4.80
2023-04-01T21:04:24.389Z,4.40
2023-04-01T21:11:27.938Z,4.38
2023-04-01T21:15:10.987Z,4.13
2023-04-01T21:19:42.736Z,4.70
2023-04-01T21:23:05.897Z,3.90
2023-04-01T21:26:24.657Z,4.50
2023-04-01T21:33:44.190Z,4.90
2023-04-01T21:37:45.583Z,5.90
2023-04-01T21:40:51.793Z,6.18
2023-04-01T21:43:20.126Z,5.63
2023-04-01T21:46:22.700Z,5.63
2023-04-01T21:49:20.945Z,5.30
2023-04-01T21:51:52.785Z,6.90
2023-04-01T21:54:41.108Z,7.82
2023-04-01T21:57:37.351Z,6.20
2023-04-01T22:00:33.183Z,7.80
2023-04-01T22:03:38.489Z,7.75
2023-04-01T22:06:26.595Z,7.82
2023-04-01T22:08:58.367Z,7.68
2023-04-01T22:11:38.216Z,7.97
2023-04-01T22:14:27.725Z,7.28
2023-04-01T22:17:04.956Z,7.80
2023-04-01T22:19:47.822Z,7.35
2023-04-01T22:22:42.232Z,8.27
2023-04-01T22:25:14.213Z,8.30
2023-04-01T22:27:53.866Z,8.18
2023-04-01T22:30:25.268Z,8.15
2023-04-01T22:33:08.377Z,7.90
2023-04-01T22:35:48.468Z,6.85
2023-04-01T22:38:43.287Z,6.65
2023-04-01T22:41:39.016Z,6.38
2023-04-01T22:44:27.036Z,5.95
2023-04-01T22:47:00.719Z,4.38
2023-04-01T22:49:43.497Z,4.10
2023-04-01T22:52:20.068Z,3.72
2023-04-01T22:54:56.865Z,3.78
2023-04-01T22:57:32.010Z,5.57
2023-04-01T23:00:35.867Z,6.00
2023-04-01T23:03:28.991Z,3.83
2023-04-01T23:06:03.025Z,3.90
2023-04-01T23:08:43.138Z,3.70
2023-04-01T23:11:21.217Z,3.00
2023-04-01T23:13:55.438Z,3.08
2023-04-01T23:16:34.441Z,2.88
2023-04-01T23:19:09.907Z,3.03
2023-04-01T23:21:55.747Z,3.22
2023-04-01T23:24:34.691Z,2.75
2023-04-01T23:27:21.137Z,2.63
2023-04-01T23:29:49.121Z,3.00
2023-04-01T23:32:19.989Z,3.00
2023-04-01T23:34:51.226Z,2.55
2023-04-01T23:37:21.670Z,2.42
2023-04-01T23:40:13.913Z,2.33
2023-04-01T23:42:43.035Z,2.35
2023-04-01T23:45:23.867Z,3.10
2023-04-01T23:47:53.459Z,2.70
2023-04-01T23:50:25.524Z,2.88
2023-04-01T23:53:12.426Z,2.33
2023-04-01T23:55:43.566Z,2.70
2023-04-01T23:58:24.029Z,2.80
